sensor_id;sensor_type;location;lat;lon;timestamp;P1;durP1;ratioP1;P2;durP2;ratioP2
46745;SDS011;32493;50.514;9.678;2022-07-29T00:01:15;6.53;;;1.70;;
46745;SDS011;32493;50.514;9.678;2022-07-29T00:03:24;7.85;;;2.10;;
46745;SDS011;32493;50.514;9.678;2022-07-29T00:05:32;7.28;;;2.00;;
46745;SDS011;32493;50.514;9.678;2022-07-29T00:07:39;8.60;;;2.05;;
46745;SDS011;32493;50.514;9.678;2022-07-29T00:09:48;5.45;;;1.90;;
46745;SDS011;32493;50.514;9.678;2022-07-29T00:11:55;4.07;;;1.80;;
46745;SDS011;32493;50.514;9.678;2022-07-29T00:14:10;7.20;;;1.98;;
46745;SDS011;32493;50.514;9.678;2022-07-29T00:16:15;4.65;;;1.65;;
46745;SDS011;32493;50.514;9.678;2022-07-29T00:18:23;7.68;;;2.00;;
46745;SDS011;32493;50.514;9.678;2022-07-29T00:20:35;6.70;;;2.00;;
46745;SDS011;32493;50.514;9.678;2022-07-29T00:22:41;11.23;;;2.00;;
46745;SDS011;32493;50.514;9.678;2022-07-29T00:24:49;4.63;;;2.20;;
46745;SDS011;32493;50.514;9.678;2022-07-29T00:26:55;7.28;;;1.75;;
46745;SDS011;32493;50.514;9.678;2022-07-29T00:29:02;8.30;;;2.60;;
46745;SDS011;32493;50.514;9.678;2022-07-29T00:31:28;5.63;;;2.20;;
46745;SDS011;32493;50.514;9.678;2022-07-29T00:33:33;7.68;;;2.05;;
46745;SDS011;32493;50.514;9.678;2022-07-29T00:35:42;5.05;;;2.00;;
46745;SDS011;32493;50.514;9.678;2022-07-29T00:37:48;4.65;;;1.88;;
46745;SDS011;32493;50.514;9.678;2022-07-29T00:39:53;4.88;;;1.60;;
46745;SDS011;32493;50.514;9.678;2022-07-29T00:41:58;5.50;;;1.83;;
46745;SDS011;32493;50.514;9.678;2022-07-29T00:44:05;7.20;;;1.90;;
46745;SDS011;32493;50.514;9.678;2022-07-29T00:46:11;6.05;;;1.77;;
46745;SDS011;32493;50.514;9.678;2022-07-29T00:48:17;6.80;;;2.10;;
46745;SDS011;32493;50.514;9.678;2022-07-29T00:50:22;7.05;;;1.88;;
46745;SDS011;32493;50.514;9.678;2022-07-29T00:52:34;6.25;;;2.53;;
46745;SDS011;32493;50.514;9.678;2022-07-29T00:54:43;4.28;;;2.15;;
46745;SDS011;32493;50.514;9.678;2022-07-29T00:56:48;6.97;;;2.13;;
46745;SDS011;32493;50.514;9.678;2022-07-29T00:58:54;6.38;;;2.42;;
46745;SDS011;32493;50.514;9.678;2022-07-29T01:01:00;5.75;;;2.08;;
46745;SDS011;32493;50.514;9.678;2022-07-29T01:03:06;9.77;;;2.38;;
46745;SDS011;32493;50.514;9.678;2022-07-29T01:05:11;9.30;;;2.25;;
46745;SDS011;32493;50.514;9.678;2022-07-29T01:07:16;4.72;;;1.70;;
46745;SDS011;32493;50.514;9.678;2022-07-29T01:09:26;5.13;;;1.90;;
46745;SDS011;32493;50.514;9.678;2022-07-29T01:11:47;4.75;;;1.65;;
46745;SDS011;32493;50.514;9.678;2022-07-29T01:13:52;7.75;;;2.00;;
46745;SDS011;32493;50.514;9.678;2022-07-29T01:15:59;5.15;;;2.25;;
46745;SDS011;32493;50.514;9.678;2022-07-29T01:18:11;6.13;;;2.17;;
46745;SDS011;32493;50.514;9.678;2022-07-29T01:20:24;9.05;;;2.47;;
46745;SDS011;32493;50.514;9.678;2022-07-29T01:22:38;13.73;;;2.15;;
46745;SDS011;32493;50.514;9.678;2022-07-29T01:28:08;9.40;;;2.00;;
46745;SDS011;32493;50.514;9.678;2022-07-29T01:30:44;6.38;;;2.58;;
46745;SDS011;32493;50.514;9.678;2022-07-29T01:32:56;4.97;;;1.85;;
46745;SDS011;32493;50.514;9.678;2022-07-29T01:35:09;6.22;;;2.00;;
46745;SDS011;32493;50.514;9.678;2022-07-29T01:37:22;8.48;;;2.25;;
46745;SDS011;32493;50.514;9.678;2022-07-29T01:39:32;7.68;;;2.38;;
46745;SDS011;32493;50.514;9.678;2022-07-29T01:41:43;4.25;;;1.75;;
46745;SDS011;32493;50.514;9.678;2022-07-29T01:43:56;6.65;;;1.85;;
46745;SDS011;32493;50.514;9.678;2022-07-29T01:46:11;7.70;;;2.25;;
46745;SDS011;32493;50.514;9.678;2022-07-29T01:48:27;6.85;;;1.80;;
46745;SDS011;32493;50.514;9.678;2022-07-29T01:50:45;5.82;;;2.08;;
46745;SDS011;32493;50.514;9.678;2022-07-29T01:52:58;5.40;;;1.50;;
46745;SDS011;32493;50.514;9.678;2022-07-29T01:55:09;5.32;;;2.22;;
46745;SDS011;32493;50.514;9.678;2022-07-29T01:57:19;4.57;;;2.00;;
46745;SDS011;32493;50.514;9.678;2022-07-29T01:59:29;5.70;;;1.70;;
46745;SDS011;32493;50.514;9.678;2022-07-29T02:01:41;9.73;;;1.80;;
46745;SDS011;32493;50.514;9.678;2022-07-29T02:03:55;7.45;;;1.90;;
46745;SDS011;32493;50.514;9.678;2022-07-29T02:06:04;6.63;;;2.28;;
46745;SDS011;32493;50.514;9.678;2022-07-29T02:08:14;4.72;;;2.05;;
46745;SDS011;32493;50.514;9.678;2022-07-29T02:10:26;7.65;;;2.40;;
46745;SDS011;32493;50.514;9.678;2022-07-29T02:12:35;4.80;;;1.70;;
46745;SDS011;32493;50.514;9.678;2022-07-29T02:14:51;7.70;;;1.70;;
46745;SDS011;32493;50.514;9.678;2022-07-29T02:17:03;6.35;;;2.03;;
46745;SDS011;32493;50.514;9.678;2022-07-29T02:19:09;11.70;;;2.17;;
46745;SDS011;32493;50.514;9.678;2022-07-29T02:23:29;7.63;;;1.80;;
46745;SDS011;32493;50.514;9.678;2022-07-29T02:25:52;7.72;;;2.15;;
46745;SDS011;32493;50.514;9.678;2022-07-29T02:28:00;4.57;;;1.80;;
46745;SDS011;32493;50.514;9.678;2022-07-29T02:30:07;6.27;;;1.87;;
46745;SDS011;32493;50.514;9.678;2022-07-29T02:32:18;8.80;;;2.30;;
46745;SDS011;32493;50.514;9.678;2022-07-29T02:34:27;9.52;;;1.73;;
46745;SDS011;32493;50.514;9.678;2022-07-29T02:36:33;4.60;;;1.80;;
46745;SDS011;32493;50.514;9.678;2022-07-29T02:38:38;7.18;;;1.70;;
46745;SDS011;32493;50.514;9.678;2022-07-29T02:40:58;4.50;;;1.58;;
46745;SDS011;32493;50.514;9.678;2022-07-29T02:43:07;10.05;;;1.83;;
46745;SDS011;32493;50.514;9.678;2022-07-29T02:45:14;4.53;;;1.40;;
46745;SDS011;32493;50.514;9.678;2022-07-29T02:47:23;3.63;;;1.70;;
46745;SDS011;32493;50.514;9.678;2022-07-29T02:49:42;8.80;;;1.70;;
46745;SDS011;32493;50.514;9.678;2022-07-29T02:51:58;5.93;;;1.55;;
46745;SDS011;32493;50.514;9.678;2022-07-29T02:54:08;6.00;;;1.95;;
46745;SDS011;32493;50.514;9.678;2022-07-29T02:56:23;6.07;;;1.70;;
46745;SDS011;32493;50.514;9.678;2022-07-29T02:58:38;6.57;;;1.95;;
46745;SDS011;32493;50.514;9.678;2022-07-29T03:00:46;5.78;;;2.10;;
46745;SDS011;32493;50.514;9.678;2022-07-29T03:02:56;5.70;;;1.60;;
46745;SDS011;32493;50.514;9.678;2022-07-29T03:05:06;5.28;;;1.83;;
46745;SDS011;32493;50.514;9.678;2022-07-29T03:07:18;8.40;;;1.80;;
46745;SDS011;32493;50.514;9.678;2022-07-29T03:09:26;11.68;;;2.05;;
46745;SDS011;32493;50.514;9.678;2022-07-29T03:11:33;5.72;;;1.90;;
46745;SDS011;32493;50.514;9.678;2022-07-29T03:15:57;5.45;;;2.00;;
46745;SDS011;32493;50.514;9.678;2022-07-29T03:18:06;4.33;;;1.87;;
46745;SDS011;32493;50.514;9.678;2022-07-29T03:20:15;5.43;;;1.65;;
46745;SDS011;32493;50.514;9.678;2022-07-29T03:22:21;6.43;;;2.08;;
46745;SDS011;32493;50.514;9.678;2022-07-29T03:24:27;5.18;;;2.20;;
46745;SDS011;32493;50.514;9.678;2022-07-29T03:26:34;6.35;;;2.10;;
46745;SDS011;32493;50.514;9.678;2022-07-29T03:28:40;5.38;;;1.80;;
46745;SDS011;32493;50.514;9.678;2022-07-29T03:30:48;3.92;;;1.83;;
46745;SDS011;32493;50.514;9.678;2022-07-29T03:32:55;7.88;;;2.67;;
46745;SDS011;32493;50.514;9.678;2022-07-29T03:35:04;7.80;;;2.30;;
46745;SDS011;32493;50.514;9.678;2022-07-29T03:37:10;8.00;;;2.10;;
46745;SDS011;32493;50.514;9.678;2022-07-29T03:39:17;12.18;;;2.33;;
46745;SDS011;32493;50.514;9.678;2022-07-29T03:41:27;6.53;;;2.00;;
46745;SDS011;32493;50.514;9.678;2022-07-29T03:43:36;4.28;;;1.95;;
46745;SDS011;32493;50.514;9.678;2022-07-29T03:45:51;4.40;;;1.83;;
46745;SDS011;32493;50.514;9.678;2022-07-29T03:48:00;4.55;;;1.80;;
46745;SDS011;32493;50.514;9.678;2022-07-29T03:50:12;8.05;;;2.15;;
46745;SDS011;32493;50.514;9.678;2022-07-29T03:52:20;7.80;;;2.03;;
46745;SDS011;32493;50.514;9.678;2022-07-29T03:54:27;5.28;;;1.90;;
46745;SDS011;32493;50.514;9.678;2022-07-29T03:56:34;5.45;;;2.15;;
46745;SDS011;32493;50.514;9.678;2022-07-29T03:58:46;5.57;;;2.53;;
46745;SDS011;32493;50.514;9.678;2022-07-29T04:00:51;3.72;;;1.67;;
46745;SDS011;32493;50.514;9.678;2022-07-29T04:02:58;7.00;;;1.90;;
46745;SDS011;32493;50.514;9.678;2022-07-29T04:05:04;9.23;;;1.90;;
46745;SDS011;32493;50.514;9.678;2022-07-29T04:07:18;5.97;;;1.80;;
46745;SDS011;32493;50.514;9.678;2022-07-29T04:09:23;11.13;;;2.20;;
46745;SDS011;32493;50.514;9.678;2022-07-29T04:11:29;5.70;;;1.70;;
46745;SDS011;32493;50.514;9.678;2022-07-29T04:13:54;7.78;;;2.10;;
46745;SDS011;32493;50.514;9.678;2022-07-29T04:15:59;5.65;;;1.77;;
46745;SDS011;32493;50.514;9.678;2022-07-29T04:18:05;6.53;;;2.53;;
46745;SDS011;32493;50.514;9.678;2022-07-29T04:20:13;4.57;;;1.95;;
46745;SDS011;32493;50.514;9.678;2022-07-29T04:22:19;5.55;;;2.28;;
46745;SDS011;32493;50.514;9.678;2022-07-29T04:24:25;9.07;;;2.13;;
46745;SDS011;32493;50.514;9.678;2022-07-29T04:26:31;12.77;;;2.17;;
46745;SDS011;32493;50.514;9.678;2022-07-29T04:28:37;6.53;;;2.00;;
46745;SDS011;32493;50.514;9.678;2022-07-29T04:30:43;7.90;;;2.30;;
46745;SDS011;32493;50.514;9.678;2022-07-29T04:32:50;6.25;;;1.88;;
46745;SDS011;32493;50.514;9.678;2022-07-29T04:34:57;7.50;;;2.08;;
46745;SDS011;32493;50.514;9.678;2022-07-29T04:37:04;7.93;;;2.10;;
46745;SDS011;32493;50.514;9.678;2022-07-29T04:41:19;9.00;;;2.17;;
46745;SDS011;32493;50.514;9.678;2022-07-29T04:43:34;6.63;;;2.38;;
46745;SDS011;32493;50.514;9.678;2022-07-29T04:45:39;3.97;;;1.92;;
46745;SDS011;32493;50.514;9.678;2022-07-29T04:47:46;6.72;;;2.35;;
46745;SDS011;32493;50.514;9.678;2022-07-29T04:49:53;9.90;;;2.37;;
46745;SDS011;32493;50.514;9.678;2022-07-29T04:51:58;7.38;;;2.42;;
46745;SDS011;32493;50.514;9.678;2022-07-29T04:54:06;6.85;;;1.90;;
46745;SDS011;32493;50.514;9.678;2022-07-29T04:56:11;4.95;;;2.10;;
46745;SDS011;32493;50.514;9.678;2022-07-29T04:58:16;7.88;;;2.83;;
46745;SDS011;32493;50.514;9.678;2022-07-29T05:00:22;8.05;;;2.20;;
46745;SDS011;32493;50.514;9.678;2022-07-29T05:02:34;5.72;;;2.20;;
46745;SDS011;32493;50.514;9.678;2022-07-29T05:04:40;8.73;;;2.35;;
46745;SDS011;32493;50.514;9.678;2022-07-29T05:06:45;8.00;;;2.20;;
46745;SDS011;32493;50.514;9.678;2022-07-29T05:08:50;10.10;;;2.20;;
46745;SDS011;32493;50.514;9.678;2022-07-29T05:10:58;10.60;;;2.60;;
46745;SDS011;32493;50.514;9.678;2022-07-29T05:13:12;12.35;;;2.25;;
46745;SDS011;32493;50.514;9.678;2022-07-29T05:15:17;6.65;;;1.70;;
46745;SDS011;32493;50.514;9.678;2022-07-29T05:17:23;4.70;;;2.20;;
46745;SDS011;32493;50.514;9.678;2022-07-29T05:19:28;6.68;;;2.30;;
46745;SDS011;32493;50.514;9.678;2022-07-29T05:21:33;6.22;;;2.10;;
46745;SDS011;32493;50.514;9.678;2022-07-29T05:23:38;8.10;;;2.40;;
46745;SDS011;32493;50.514;9.678;2022-07-29T05:25:44;9.05;;;2.60;;
46745;SDS011;32493;50.514;9.678;2022-07-29T05:27:55;9.05;;;2.15;;
46745;SDS011;32493;50.514;9.678;2022-07-29T05:30:02;6.50;;;1.98;;
46745;SDS011;32493;50.514;9.678;2022-07-29T05:32:08;9.83;;;2.03;;
46745;SDS011;32493;50.514;9.678;2022-07-29T05:34:16;4.13;;;1.80;;
46745;SDS011;32493;50.514;9.678;2022-07-29T05:36:22;9.00;;;1.98;;
46745;SDS011;32493;50.514;9.678;2022-07-29T05:38:29;13.77;;;2.50;;
46745;SDS011;32493;50.514;9.678;2022-07-29T05:40:35;7.97;;;2.30;;
46745;SDS011;32493;50.514;9.678;2022-07-29T05:42:41;11.40;;;2.40;;
46745;SDS011;32493;50.514;9.678;2022-07-29T05:44:48;6.70;;;2.58;;
46745;SDS011;32493;50.514;9.678;2022-07-29T05:46:53;9.23;;;2.45;;
46745;SDS011;32493;50.514;9.678;2022-07-29T05:48:59;9.43;;;2.05;;
46745;SDS011;32493;50.514;9.678;2022-07-29T05:51:05;12.23;;;2.00;;
46745;SDS011;32493;50.514;9.678;2022-07-29T05:53:10;4.15;;;1.85;;
46745;SDS011;32493;50.514;9.678;2022-07-29T05:55:20;6.32;;;2.08;;
46745;SDS011;32493;50.514;9.678;2022-07-29T05:57:25;5.63;;;1.60;;
46745;SDS011;32493;50.514;9.678;2022-07-29T05:59:31;5.35;;;1.80;;
46745;SDS011;32493;50.514;9.678;2022-07-29T06:01:42;7.35;;;1.95;;
46745;SDS011;32493;50.514;9.678;2022-07-29T06:03:49;6.75;;;2.22;;
46745;SDS011;32493;50.514;9.678;2022-07-29T06:05:54;9.15;;;2.45;;
46745;SDS011;32493;50.514;9.678;2022-07-29T06:07:59;11.43;;;2.83;;
46745;SDS011;32493;50.514;9.678;2022-07-29T06:10:07;12.82;;;2.40;;
46745;SDS011;32493;50.514;9.678;2022-07-29T06:12:13;10.02;;;3.17;;
46745;SDS011;32493;50.514;9.678;2022-07-29T06:14:18;6.95;;;2.25;;
46745;SDS011;32493;50.514;9.678;2022-07-29T06:16:24;12.48;;;3.00;;
46745;SDS011;32493;50.514;9.678;2022-07-29T06:18:33;8.73;;;2.42;;
46745;SDS011;32493;50.514;9.678;2022-07-29T06:20:38;8.52;;;2.67;;
46745;SDS011;32493;50.514;9.678;2022-07-29T06:22:43;5.22;;;2.17;;
46745;SDS011;32493;50.514;9.678;2022-07-29T06:24:49;10.20;;;2.72;;
46745;SDS011;32493;50.514;9.678;2022-07-29T06:26:54;13.65;;;3.28;;
46745;SDS011;32493;50.514;9.678;2022-07-29T06:28:59;6.18;;;2.45;;
46745;SDS011;32493;50.514;9.678;2022-07-29T06:31:05;12.80;;;2.83;;
46745;SDS011;32493;50.514;9.678;2022-07-29T06:33:15;7.63;;;2.90;;
46745;SDS011;32493;50.514;9.678;2022-07-29T06:35:24;7.90;;;2.75;;
46745;SDS011;32493;50.514;9.678;2022-07-29T06:37:42;10.88;;;3.33;;
46745;SDS011;32493;50.514;9.678;2022-07-29T06:39:49;9.38;;;2.85;;
46745;SDS011;32493;50.514;9.678;2022-07-29T06:42:16;8.98;;;3.25;;
46745;SDS011;32493;50.514;9.678;2022-07-29T06:44:21;11.45;;;3.28;;
46745;SDS011;32493;50.514;9.678;2022-07-29T06:46:27;7.55;;;2.72;;
46745;SDS011;32493;50.514;9.678;2022-07-29T06:48:32;16.98;;;4.22;;
46745;SDS011;32493;50.514;9.678;2022-07-29T06:50:41;7.03;;;2.78;;
46745;SDS011;32493;50.514;9.678;2022-07-29T06:52:46;9.50;;;2.90;;
46745;SDS011;32493;50.514;9.678;2022-07-29T06:54:51;8.93;;;2.88;;
46745;SDS011;32493;50.514;9.678;2022-07-29T06:56:56;10.88;;;3.55;;
46745;SDS011;32493;50.514;9.678;2022-07-29T06:59:02;8.63;;;3.55;;
46745;SDS011;32493;50.514;9.678;2022-07-29T07:01:07;9.23;;;3.13;;
46745;SDS011;32493;50.514;9.678;2022-07-29T07:03:14;7.18;;;2.63;;
46745;SDS011;32493;50.514;9.678;2022-07-29T07:05:21;8.48;;;3.05;;
46745;SDS011;32493;50.514;9.678;2022-07-29T07:07:29;15.95;;;3.28;;
46745;SDS011;32493;50.514;9.678;2022-07-29T07:09:34;7.57;;;2.97;;
46745;SDS011;32493;50.514;9.678;2022-07-29T07:11:41;9.93;;;3.83;;
46745;SDS011;32493;50.514;9.678;2022-07-29T07:13:50;8.85;;;3.72;;
46745;SDS011;32493;50.514;9.678;2022-07-29T07:16:01;15.65;;;4.18;;
46745;SDS011;32493;50.514;9.678;2022-07-29T07:18:07;10.57;;;3.80;;
46745;SDS011;32493;50.514;9.678;2022-07-29T07:20:12;10.48;;;3.95;;
46745;SDS011;32493;50.514;9.678;2022-07-29T07:22:17;10.95;;;3.10;;
46745;SDS011;32493;50.514;9.678;2022-07-29T07:24:25;9.32;;;3.55;;
46745;SDS011;32493;50.514;9.678;2022-07-29T07:26:31;6.90;;;3.70;;
46745;SDS011;32493;50.514;9.678;2022-07-29T07:28:36;8.88;;;4.10;;
46745;SDS011;32493;50.514;9.678;2022-07-29T07:30:42;8.25;;;4.35;;
46745;SDS011;32493;50.514;9.678;2022-07-29T07:32:47;8.02;;;3.50;;
46745;SDS011;32493;50.514;9.678;2022-07-29T07:34:52;8.27;;;2.70;;
46745;SDS011;32493;50.514;9.678;2022-07-29T07:36:58;10.52;;;3.55;;
46745;SDS011;32493;50.514;9.678;2022-07-29T07:39:03;10.57;;;3.80;;
46745;SDS011;32493;50.514;9.678;2022-07-29T07:41:10;15.32;;;4.47;;
46745;SDS011;32493;50.514;9.678;2022-07-29T07:43:16;9.18;;;3.22;;
46745;SDS011;32493;50.514;9.678;2022-07-29T07:45:21;10.80;;;3.50;;
46745;SDS011;32493;50.514;9.678;2022-07-29T07:47:27;12.27;;;4.03;;
46745;SDS011;32493;50.514;9.678;2022-07-29T07:49:34;9.88;;;3.40;;
46745;SDS011;32493;50.514;9.678;2022-07-29T07:51:41;8.35;;;2.80;;
46745;SDS011;32493;50.514;9.678;2022-07-29T07:53:52;11.93;;;3.10;;
46745;SDS011;32493;50.514;9.678;2022-07-29T07:55:58;8.07;;;3.27;;
46745;SDS011;32493;50.514;9.678;2022-07-29T07:58:16;7.93;;;3.47;;
46745;SDS011;32493;50.514;9.678;2022-07-29T08:00:21;6.20;;;3.30;;
46745;SDS011;32493;50.514;9.678;2022-07-29T08:02:27;8.70;;;3.65;;
46745;SDS011;32493;50.514;9.678;2022-07-29T08:04:32;7.30;;;3.78;;
46745;SDS011;32493;50.514;9.678;2022-07-29T08:06:38;6.93;;;3.78;;
46745;SDS011;32493;50.514;9.678;2022-07-29T08:08:43;11.75;;;3.70;;
46745;SDS011;32493;50.514;9.678;2022-07-29T08:10:49;13.00;;;4.18;;
46745;SDS011;32493;50.514;9.678;2022-07-29T08:12:57;10.38;;;4.97;;
46745;SDS011;32493;50.514;9.678;2022-07-29T08:15:05;9.85;;;4.55;;
46745;SDS011;32493;50.514;9.678;2022-07-29T08:17:12;7.03;;;3.88;;
46745;SDS011;32493;50.514;9.678;2022-07-29T08:19:18;8.05;;;3.67;;
46745;SDS011;32493;50.514;9.678;2022-07-29T08:21:24;11.75;;;4.43;;
46745;SDS011;32493;50.514;9.678;2022-07-29T08:23:30;12.55;;;4.10;;
46745;SDS011;32493;50.514;9.678;2022-07-29T08:25:49;12.25;;;4.72;;
46745;SDS011;32493;50.514;9.678;2022-07-29T08:27:55;12.73;;;4.15;;
46745;SDS011;32493;50.514;9.678;2022-07-29T08:30:00;10.40;;;4.05;;
46745;SDS011;32493;50.514;9.678;2022-07-29T08:32:08;8.93;;;4.65;;
46745;SDS011;32493;50.514;9.678;2022-07-29T08:34:13;10.13;;;4.90;;
46745;SDS011;32493;50.514;9.678;2022-07-29T08:36:18;12.13;;;5.60;;
46745;SDS011;32493;50.514;9.678;2022-07-29T08:38:24;10.48;;;5.50;;
46745;SDS011;32493;50.514;9.678;2022-07-29T08:40:30;10.00;;;4.38;;
46745;SDS011;32493;50.514;9.678;2022-07-29T08:42:35;8.90;;;4.70;;
46745;SDS011;32493;50.514;9.678;2022-07-29T08:44:40;10.60;;;5.18;;
46745;SDS011;32493;50.514;9.678;2022-07-29T08:46:45;11.98;;;5.20;;
46745;SDS011;32493;50.514;9.678;2022-07-29T08:48:53;11.95;;;4.90;;
46745;SDS011;32493;50.514;9.678;2022-07-29T08:50:59;13.35;;;5.20;;
46745;SDS011;32493;50.514;9.678;2022-07-29T08:53:05;13.75;;;5.40;;
46745;SDS011;32493;50.514;9.678;2022-07-29T08:55:15;8.80;;;4.65;;
46745;SDS011;32493;50.514;9.678;2022-07-29T08:57:22;17.25;;;5.63;;
46745;SDS011;32493;50.514;9.678;2022-07-29T08:59:31;8.25;;;4.65;;
46745;SDS011;32493;50.514;9.678;2022-07-29T09:01:39;10.57;;;5.03;;
46745;SDS011;32493;50.514;9.678;2022-07-29T09:03:45;9.63;;;4.88;;
46745;SDS011;32493;50.514;9.678;2022-07-29T09:05:54;9.50;;;4.88;;
46745;SDS011;32493;50.514;9.678;2022-07-29T09:08:00;9.85;;;3.83;;
46745;SDS011;32493;50.514;9.678;2022-07-29T09:10:07;14.85;;;4.65;;
46745;SDS011;32493;50.514;9.678;2022-07-29T09:12:13;11.95;;;5.10;;
46745;SDS011;32493;50.514;9.678;2022-07-29T09:14:30;13.47;;;4.43;;
46745;SDS011;32493;50.514;9.678;2022-07-29T09:16:45;12.73;;;4.68;;
46745;SDS011;32493;50.514;9.678;2022-07-29T09:18:55;9.82;;;4.68;;
46745;SDS011;32493;50.514;9.678;2022-07-29T09:21:03;8.27;;;4.60;;
46745;SDS011;32493;50.514;9.678;2022-07-29T09:23:23;12.32;;;4.88;;
46745;SDS011;32493;50.514;9.678;2022-07-29T09:25:32;8.70;;;4.60;;
46745;SDS011;32493;50.514;9.678;2022-07-29T09:27:38;11.13;;;4.10;;
46745;SDS011;32493;50.514;9.678;2022-07-29T09:29:43;9.55;;;4.55;;
46745;SDS011;32493;50.514;9.678;2022-07-29T09:31:49;12.98;;;4.30;;
46745;SDS011;32493;50.514;9.678;2022-07-29T09:36:05;11.18;;;5.38;;
46745;SDS011;32493;50.514;9.678;2022-07-29T09:38:13;11.10;;;4.63;;
46745;SDS011;32493;50.514;9.678;2022-07-29T09:40:20;11.13;;;4.32;;
46745;SDS011;32493;50.514;9.678;2022-07-29T09:42:28;11.60;;;4.22;;
46745;SDS011;32493;50.514;9.678;2022-07-29T09:44:41;7.80;;;3.83;;
46745;SDS011;32493;50.514;9.678;2022-07-29T09:46:53;11.45;;;4.13;;
46745;SDS011;32493;50.514;9.678;2022-07-29T09:49:06;8.05;;;4.28;;
46745;SDS011;32493;50.514;9.678;2022-07-29T09:51:20;12.25;;;4.25;;
46745;SDS011;32493;50.514;9.678;2022-07-29T09:53:39;9.40;;;4.25;;
46745;SDS011;32493;50.514;9.678;2022-07-29T09:55:47;11.55;;;4.68;;
46745;SDS011;32493;50.514;9.678;2022-07-29T09:57:53;8.20;;;3.80;;
46745;SDS011;32493;50.514;9.678;2022-07-29T10:00:19;6.93;;;4.00;;
46745;SDS011;32493;50.514;9.678;2022-07-29T10:02:27;10.30;;;4.30;;
46745;SDS011;32493;50.514;9.678;2022-07-29T10:04:38;11.07;;;4.60;;
46745;SDS011;32493;50.514;9.678;2022-07-29T10:07:00;9.45;;;4.07;;
46745;SDS011;32493;50.514;9.678;2022-07-29T10:09:07;7.70;;;4.10;;
46745;SDS011;32493;50.514;9.678;2022-07-29T10:11:13;7.88;;;4.55;;
46745;SDS011;32493;50.514;9.678;2022-07-29T10:13:20;7.53;;;3.97;;
46745;SDS011;32493;50.514;9.678;2022-07-29T10:15:26;9.88;;;4.50;;
46745;SDS011;32493;50.514;9.678;2022-07-29T10:17:33;7.00;;;3.95;;
46745;SDS011;32493;50.514;9.678;2022-07-29T10:19:42;13.40;;;4.40;;
46745;SDS011;32493;50.514;9.678;2022-07-29T10:21:47;7.10;;;4.18;;
46745;SDS011;32493;50.514;9.678;2022-07-29T10:24:01;12.07;;;4.93;;
46745;SDS011;32493;50.514;9.678;2022-07-29T10:26:15;13.18;;;5.00;;
46745;SDS011;32493;50.514;9.678;2022-07-29T10:28:22;9.93;;;4.60;;
46745;SDS011;32493;50.514;9.678;2022-07-29T10:30:28;14.80;;;4.90;;
46745;SDS011;32493;50.514;9.678;2022-07-29T10:32:39;7.65;;;3.85;;
46745;SDS011;32493;50.514;9.678;2022-07-29T10:35:19;10.75;;;4.88;;
46745;SDS011;32493;50.514;9.678;2022-07-29T10:37:44;12.67;;;5.17;;
46745;SDS011;32493;50.514;9.678;2022-07-29T10:42:36;9.93;;;4.47;;
46745;SDS011;32493;50.514;9.678;2022-07-29T10:44:48;7.78;;;4.55;;
46745;SDS011;32493;50.514;9.678;2022-07-29T10:46:53;11.27;;;5.07;;
46745;SDS011;32493;50.514;9.678;2022-07-29T10:49:06;9.35;;;5.03;;
46745;SDS011;32493;50.514;9.678;2022-07-29T10:51:16;8.45;;;4.80;;
46745;SDS011;32493;50.514;9.678;2022-07-29T10:53:21;10.38;;;5.10;;
46745;SDS011;32493;50.514;9.678;2022-07-29T10:55:37;11.07;;;5.10;;
46745;SDS011;32493;50.514;9.678;2022-07-29T10:58:01;10.93;;;4.90;;
46745;SDS011;32493;50.514;9.678;2022-07-29T11:00:26;10.10;;;5.70;;
46745;SDS011;32493;50.514;9.678;2022-07-29T11:02:41;6.95;;;4.82;;
46745;SDS011;32493;50.514;9.678;2022-07-29T11:04:58;11.02;;;4.70;;
46745;SDS011;32493;50.514;9.678;2022-07-29T11:07:08;10.00;;;5.00;;
46745;SDS011;32493;50.514;9.678;2022-07-29T11:09:16;8.15;;;4.72;;
46745;SDS011;32493;50.514;9.678;2022-07-29T11:11:40;10.63;;;4.70;;
46745;SDS011;32493;50.514;9.678;2022-07-29T11:13:52;6.78;;;4.43;;
46745;SDS011;32493;50.514;9.678;2022-07-29T11:15:57;11.02;;;5.10;;
46745;SDS011;32493;50.514;9.678;2022-07-29T11:18:06;6.63;;;4.47;;
46745;SDS011;32493;50.514;9.678;2022-07-29T11:20:30;11.05;;;4.85;;
46745;SDS011;32493;50.514;9.678;2022-07-29T11:22:38;9.88;;;4.50;;
46745;SDS011;32493;50.514;9.678;2022-07-29T11:24:46;5.88;;;3.40;;
46745;SDS011;32493;50.514;9.678;2022-07-29T11:27:41;6.73;;;3.80;;
46745;SDS011;32493;50.514;9.678;2022-07-29T11:29:49;8.65;;;3.75;;
46745;SDS011;32493;50.514;9.678;2022-07-29T11:32:07;9.95;;;4.00;;
46745;SDS011;32493;50.514;9.678;2022-07-29T11:34:19;6.18;;;3.67;;
46745;SDS011;32493;50.514;9.678;2022-07-29T11:36:30;10.90;;;3.85;;
46745;SDS011;32493;50.514;9.678;2022-07-29T11:38:35;6.38;;;4.10;;
46745;SDS011;32493;50.514;9.678;2022-07-29T11:40:44;6.03;;;3.35;;
46745;SDS011;32493;50.514;9.678;2022-07-29T11:43:45;6.13;;;3.40;;
46745;SDS011;32493;50.514;9.678;2022-07-29T11:45:53;7.38;;;2.90;;
46745;SDS011;32493;50.514;9.678;2022-07-29T11:47:58;4.57;;;2.83;;
46745;SDS011;32493;50.514;9.678;2022-07-29T11:52:48;8.27;;;3.30;;
46745;SDS011;32493;50.514;9.678;2022-07-29T11:54:56;6.80;;;3.17;;
46745;SDS011;32493;50.514;9.678;2022-07-29T12:00:03;7.70;;;3.03;;
46745;SDS011;32493;50.514;9.678;2022-07-29T12:02:19;6.35;;;3.03;;
46745;SDS011;32493;50.514;9.678;2022-07-29T12:04:47;7.97;;;2.80;;
46745;SDS011;32493;50.514;9.678;2022-07-29T12:06:55;5.60;;;2.85;;
46745;SDS011;32493;50.514;9.678;2022-07-29T12:09:06;5.88;;;2.90;;
46745;SDS011;32493;50.514;9.678;2022-07-29T12:11:15;4.57;;;2.55;;
46745;SDS011;32493;50.514;9.678;2022-07-29T12:13:23;4.88;;;2.88;;
46745;SDS011;32493;50.514;9.678;2022-07-29T12:15:41;4.38;;;2.40;;
46745;SDS011;32493;50.514;9.678;2022-07-29T12:17:48;7.65;;;3.00;;
46745;SDS011;32493;50.514;9.678;2022-07-29T12:19:54;5.05;;;3.10;;
46745;SDS011;32493;50.514;9.678;2022-07-29T12:22:02;5.13;;;2.50;;
46745;SDS011;32493;50.514;9.678;2022-07-29T12:24:07;5.38;;;2.67;;
46745;SDS011;32493;50.514;9.678;2022-07-29T12:26:13;4.60;;;2.50;;
46745;SDS011;32493;50.514;9.678;2022-07-29T12:28:26;6.13;;;2.67;;
46745;SDS011;32493;50.514;9.678;2022-07-29T12:30:36;4.50;;;2.67;;
46745;SDS011;32493;50.514;9.678;2022-07-29T12:32:52;4.60;;;2.80;;
46745;SDS011;32493;50.514;9.678;2022-07-29T12:34:57;4.03;;;2.83;;
46745;SDS011;32493;50.514;9.678;2022-07-29T12:37:03;4.32;;;2.63;;
46745;SDS011;32493;50.514;9.678;2022-07-29T12:39:10;4.53;;;2.80;;
46745;SDS011;32493;50.514;9.678;2022-07-29T12:41:17;3.33;;;2.50;;
46745;SDS011;32493;50.514;9.678;2022-07-29T12:43:22;4.07;;;2.40;;
46745;SDS011;32493;50.514;9.678;2022-07-29T12:50:07;6.50;;;2.35;;
46745;SDS011;32493;50.514;9.678;2022-07-29T12:52:25;3.40;;;2.50;;
46745;SDS011;32493;50.514;9.678;2022-07-29T12:54:33;2.78;;;2.20;;
46745;SDS011;32493;50.514;9.678;2022-07-29T12:56:38;4.53;;;2.15;;
46745;SDS011;32493;50.514;9.678;2022-07-29T13:00:58;2.53;;;2.15;;
46745;SDS011;32493;50.514;9.678;2022-07-29T13:03:20;3.45;;;2.00;;
46745;SDS011;32493;50.514;9.678;2022-07-29T13:05:38;2.95;;;2.33;;
46745;SDS011;32493;50.514;9.678;2022-07-29T13:07:49;4.05;;;2.65;;
46745;SDS011;32493;50.514;9.678;2022-07-29T13:10:09;2.85;;;2.10;;
46745;SDS011;32493;50.514;9.678;2022-07-29T13:12:18;2.53;;;2.00;;
46745;SDS011;32493;50.514;9.678;2022-07-29T13:14:31;5.07;;;1.90;;
46745;SDS011;32493;50.514;9.678;2022-07-29T13:17:02;4.10;;;1.90;;
46745;SDS011;32493;50.514;9.678;2022-07-29T13:19:12;2.50;;;1.98;;
46745;SDS011;32493;50.514;9.678;2022-07-29T13:21:18;2.40;;;2.00;;
46745;SDS011;32493;50.514;9.678;2022-07-29T13:23:23;3.22;;;1.75;;
46745;SDS011;32493;50.514;9.678;2022-07-29T13:25:29;3.95;;;2.22;;